METAR Data
IDs: Format: Raw Decoded Include TAF

Data at: 1344 UTC 26 Feb 2021

METAR for:KMNH (Mountain Pass Arpt, CO, US)
Text:KMNH 261335Z AUTO 21008KT 10SM CLR M05/M16 A2979 RMK AO2
Temperature: -5.0°C ( 23°F)
Dewpoint:-16.0°C ( 3°F) [RH = 42%]
Pressure (altimeter):29.79 inches Hg (1008.9 mb)
Winds:from the SSW (210 degrees) at 9 MPH (8 knots; 4.1 m/s)
Visibility:10 or more sm (16+ km)
Ceiling:at least 12,000 feet AGL
Clouds:sky clear below 12,000 feet AGL
QC Flag:automated observation with no human augmentation